sensor_id;sensor_type;location;lat;lon;timestamp;P1;durP1;ratioP1;P2;durP2;ratioP2
19739;SDS011;10027;51.066;13.768;2022-07-29T00:02:24;1.90;;;1.00;;
19739;SDS011;10027;51.066;13.768;2022-07-29T00:04:51;1.97;;;1.10;;
19739;SDS011;10027;51.066;13.768;2022-07-29T00:07:18;2.30;;;1.20;;
19739;SDS011;10027;51.066;13.768;2022-07-29T00:09:46;1.20;;;1.10;;
19739;SDS011;10027;51.066;13.768;2022-07-29T00:12:18;5.50;;;1.10;;
19739;SDS011;10027;51.066;13.768;2022-07-29T00:14:51;7.17;;;1.40;;
19739;SDS011;10027;51.066;13.768;2022-07-29T00:17:18;1.70;;;1.27;;
19739;SDS011;10027;51.066;13.768;2022-07-29T00:19:45;2.03;;;1.27;;
19739;SDS011;10027;51.066;13.768;2022-07-29T00:22:12;2.43;;;1.07;;
19739;SDS011;10027;51.066;13.768;2022-07-29T00:24:40;1.37;;;1.10;;
19739;SDS011;10027;51.066;13.768;2022-07-29T00:27:07;1.87;;;1.23;;
19739;SDS011;10027;51.066;13.768;2022-07-29T00:29:34;2.33;;;1.20;;
19739;SDS011;10027;51.066;13.768;2022-07-29T00:32:01;2.53;;;1.30;;
19739;SDS011;10027;51.066;13.768;2022-07-29T00:34:30;1.93;;;1.30;;
19739;SDS011;10027;51.066;13.768;2022-07-29T00:37:16;2.40;;;1.33;;
19739;SDS011;10027;51.066;13.768;2022-07-29T00:39:43;2.17;;;1.40;;
19739;SDS011;10027;51.066;13.768;2022-07-29T00:42:10;1.77;;;1.17;;
19739;SDS011;10027;51.066;13.768;2022-07-29T00:44:38;2.50;;;1.40;;
19739;SDS011;10027;51.066;13.768;2022-07-29T00:47:06;3.13;;;1.50;;
19739;SDS011;10027;51.066;13.768;2022-07-29T00:49:34;1.63;;;1.50;;
19739;SDS011;10027;51.066;13.768;2022-07-29T00:52:02;2.90;;;1.37;;
19739;SDS011;10027;51.066;13.768;2022-07-29T00:54:30;2.70;;;1.50;;
19739;SDS011;10027;51.066;13.768;2022-07-29T00:57:00;2.77;;;1.70;;
19739;SDS011;10027;51.066;13.768;2022-07-29T00:59:27;2.40;;;1.43;;
19739;SDS011;10027;51.066;13.768;2022-07-29T01:02:01;3.33;;;1.60;;
19739;SDS011;10027;51.066;13.768;2022-07-29T01:04:28;2.10;;;1.60;;
19739;SDS011;10027;51.066;13.768;2022-07-29T01:06:55;1.83;;;1.60;;
19739;SDS011;10027;51.066;13.768;2022-07-29T01:09:24;2.40;;;1.40;;
19739;SDS011;10027;51.066;13.768;2022-07-29T01:12:12;1.97;;;1.43;;
19739;SDS011;10027;51.066;13.768;2022-07-29T01:14:40;2.60;;;1.70;;
19739;SDS011;10027;51.066;13.768;2022-07-29T01:17:10;3.63;;;1.70;;
19739;SDS011;10027;51.066;13.768;2022-07-29T01:22:19;3.07;;;2.27;;
19739;SDS011;10027;51.066;13.768;2022-07-29T01:24:57;2.43;;;1.90;;
19739;SDS011;10027;51.066;13.768;2022-07-29T01:27:41;3.77;;;1.67;;
19739;SDS011;10027;51.066;13.768;2022-07-29T01:30:11;3.77;;;2.10;;
19739;SDS011;10027;51.066;13.768;2022-07-29T01:32:40;4.13;;;2.07;;
19739;SDS011;10027;51.066;13.768;2022-07-29T01:35:19;2.07;;;1.87;;
19739;SDS011;10027;51.066;13.768;2022-07-29T01:43:42;2.93;;;1.90;;
19739;SDS011;10027;51.066;13.768;2022-07-29T01:46:14;4.23;;;2.10;;
19739;SDS011;10027;51.066;13.768;2022-07-29T01:48:47;3.67;;;1.83;;
19739;SDS011;10027;51.066;13.768;2022-07-29T01:51:20;4.10;;;2.20;;
19739;SDS011;10027;51.066;13.768;2022-07-29T01:53:55;4.90;;;2.67;;
19739;SDS011;10027;51.066;13.768;2022-07-29T01:56:24;4.90;;;2.73;;
19739;SDS011;10027;51.066;13.768;2022-07-29T01:58:55;4.80;;;3.47;;
19739;SDS011;10027;51.066;13.768;2022-07-29T02:01:23;7.53;;;4.53;;
19739;SDS011;10027;51.066;13.768;2022-07-29T02:03:51;10.90;;;4.97;;
19739;SDS011;10027;51.066;13.768;2022-07-29T02:06:21;6.50;;;5.10;;
19739;SDS011;10027;51.066;13.768;2022-07-29T02:08:48;7.53;;;4.77;;
19739;SDS011;10027;51.066;13.768;2022-07-29T02:11:16;9.73;;;4.70;;
19739;SDS011;10027;51.066;13.768;2022-07-29T02:13:44;8.27;;;5.60;;
19739;SDS011;10027;51.066;13.768;2022-07-29T02:16:11;10.23;;;5.77;;
19739;SDS011;10027;51.066;13.768;2022-07-29T02:18:40;10.53;;;4.87;;
19739;SDS011;10027;51.066;13.768;2022-07-29T02:21:08;7.00;;;4.67;;
19739;SDS011;10027;51.066;13.768;2022-07-29T02:23:41;6.53;;;4.73;;
19739;SDS011;10027;51.066;13.768;2022-07-29T02:26:16;5.93;;;4.53;;
19739;SDS011;10027;51.066;13.768;2022-07-29T02:28:44;6.23;;;4.63;;
19739;SDS011;10027;51.066;13.768;2022-07-29T02:31:12;7.20;;;4.93;;
19739;SDS011;10027;51.066;13.768;2022-07-29T02:33:40;8.07;;;4.70;;
19739;SDS011;10027;51.066;13.768;2022-07-29T02:36:08;7.63;;;4.43;;
19739;SDS011;10027;51.066;13.768;2022-07-29T02:38:36;5.93;;;4.00;;
19739;SDS011;10027;51.066;13.768;2022-07-29T02:43:57;6.00;;;3.73;;
19739;SDS011;10027;51.066;13.768;2022-07-29T02:46:32;7.27;;;4.20;;
19739;SDS011;10027;51.066;13.768;2022-07-29T02:49:03;9.13;;;4.60;;
19739;SDS011;10027;51.066;13.768;2022-07-29T02:51:35;8.77;;;5.90;;
19739;SDS011;10027;51.066;13.768;2022-07-29T02:54:10;7.80;;;5.67;;
19739;SDS011;10027;51.066;13.768;2022-07-29T02:56:38;11.10;;;6.00;;
19739;SDS011;10027;51.066;13.768;2022-07-29T02:59:09;9.70;;;6.23;;
19739;SDS011;10027;51.066;13.768;2022-07-29T03:01:39;9.73;;;6.80;;
19739;SDS011;10027;51.066;13.768;2022-07-29T03:04:07;13.07;;;7.43;;
19739;SDS011;10027;51.066;13.768;2022-07-29T03:06:36;12.53;;;7.43;;
19739;SDS011;10027;51.066;13.768;2022-07-29T03:09:05;14.13;;;8.70;;
19739;SDS011;10027;51.066;13.768;2022-07-29T03:11:39;11.17;;;7.27;;
19739;SDS011;10027;51.066;13.768;2022-07-29T03:14:16;10.50;;;6.60;;
19739;SDS011;10027;51.066;13.768;2022-07-29T03:16:44;7.10;;;5.83;;
19739;SDS011;10027;51.066;13.768;2022-07-29T03:19:11;8.93;;;5.67;;
19739;SDS011;10027;51.066;13.768;2022-07-29T03:21:39;7.57;;;5.60;;
19739;SDS011;10027;51.066;13.768;2022-07-29T03:24:06;6.87;;;5.03;;
19739;SDS011;10027;51.066;13.768;2022-07-29T03:26:36;6.30;;;4.30;;
19739;SDS011;10027;51.066;13.768;2022-07-29T03:29:03;7.17;;;4.33;;
19739;SDS011;10027;51.066;13.768;2022-07-29T03:31:30;8.00;;;4.90;;
19739;SDS011;10027;51.066;13.768;2022-07-29T03:33:58;7.20;;;4.33;;
19739;SDS011;10027;51.066;13.768;2022-07-29T03:36:26;5.57;;;4.10;;
19739;SDS011;10027;51.066;13.768;2022-07-29T03:38:53;5.87;;;4.07;;
19739;SDS011;10027;51.066;13.768;2022-07-29T03:41:20;6.33;;;3.73;;
19739;SDS011;10027;51.066;13.768;2022-07-29T03:43:49;5.50;;;3.60;;
19739;SDS011;10027;51.066;13.768;2022-07-29T03:46:16;6.33;;;4.33;;
19739;SDS011;10027;51.066;13.768;2022-07-29T03:48:46;8.40;;;5.40;;
19739;SDS011;10027;51.066;13.768;2022-07-29T03:51:15;13.10;;;6.57;;
19739;SDS011;10027;51.066;13.768;2022-07-29T03:53:42;10.77;;;6.63;;
19739;SDS011;10027;51.066;13.768;2022-07-29T03:56:09;9.40;;;6.77;;
19739;SDS011;10027;51.066;13.768;2022-07-29T03:58:37;10.80;;;7.10;;
19739;SDS011;10027;51.066;13.768;2022-07-29T04:01:04;14.27;;;7.47;;
19739;SDS011;10027;51.066;13.768;2022-07-29T04:03:32;12.27;;;7.83;;
19739;SDS011;10027;51.066;13.768;2022-07-29T04:06:00;11.63;;;7.77;;
19739;SDS011;10027;51.066;13.768;2022-07-29T04:08:28;11.20;;;7.00;;
19739;SDS011;10027;51.066;13.768;2022-07-29T04:10:55;9.00;;;6.67;;
19739;SDS011;10027;51.066;13.768;2022-07-29T04:13:22;10.73;;;6.53;;
19739;SDS011;10027;51.066;13.768;2022-07-29T04:15:49;9.73;;;7.10;;
19739;SDS011;10027;51.066;13.768;2022-07-29T04:18:17;10.80;;;6.90;;
19739;SDS011;10027;51.066;13.768;2022-07-29T04:20:44;10.63;;;6.90;;
19739;SDS011;10027;51.066;13.768;2022-07-29T04:23:11;8.97;;;6.10;;
19739;SDS011;10027;51.066;13.768;2022-07-29T04:25:39;10.07;;;6.20;;
19739;SDS011;10027;51.066;13.768;2022-07-29T04:28:07;6.67;;;5.53;;
19739;SDS011;10027;51.066;13.768;2022-07-29T04:30:35;7.77;;;5.20;;
19739;SDS011;10027;51.066;13.768;2022-07-29T04:33:03;6.40;;;4.87;;
19739;SDS011;10027;51.066;13.768;2022-07-29T04:35:31;8.43;;;5.20;;
19739;SDS011;10027;51.066;13.768;2022-07-29T04:38:04;7.73;;;5.23;;
19739;SDS011;10027;51.066;13.768;2022-07-29T04:40:31;7.80;;;4.90;;
19739;SDS011;10027;51.066;13.768;2022-07-29T04:43:00;8.10;;;5.33;;
19739;SDS011;10027;51.066;13.768;2022-07-29T04:45:31;8.43;;;5.10;;
19739;SDS011;10027;51.066;13.768;2022-07-29T04:47:58;5.90;;;4.70;;
19739;SDS011;10027;51.066;13.768;2022-07-29T04:50:25;7.50;;;4.70;;
19739;SDS011;10027;51.066;13.768;2022-07-29T04:52:52;8.97;;;4.37;;
19739;SDS011;10027;51.066;13.768;2022-07-29T04:55:19;11.23;;;5.63;;
19739;SDS011;10027;51.066;13.768;2022-07-29T04:57:46;7.77;;;5.33;;
19739;SDS011;10027;51.066;13.768;2022-07-29T05:00:14;9.37;;;5.80;;
19739;SDS011;10027;51.066;13.768;2022-07-29T05:02:41;10.00;;;6.97;;
19739;SDS011;10027;51.066;13.768;2022-07-29T05:05:08;10.70;;;7.40;;
19739;SDS011;10027;51.066;13.768;2022-07-29T05:07:35;12.03;;;7.17;;
19739;SDS011;10027;51.066;13.768;2022-07-29T05:10:03;11.13;;;7.73;;
19739;SDS011;10027;51.066;13.768;2022-07-29T05:12:30;9.73;;;7.53;;
19739;SDS011;10027;51.066;13.768;2022-07-29T05:14:57;10.50;;;7.10;;
19739;SDS011;10027;51.066;13.768;2022-07-29T05:17:24;12.60;;;7.20;;
19739;SDS011;10027;51.066;13.768;2022-07-29T05:19:52;10.77;;;7.07;;
19739;SDS011;10027;51.066;13.768;2022-07-29T05:22:20;10.30;;;7.67;;
19739;SDS011;10027;51.066;13.768;2022-07-29T05:24:47;13.20;;;9.20;;
19739;SDS011;10027;51.066;13.768;2022-07-29T05:27:14;14.83;;;10.53;;
19739;SDS011;10027;51.066;13.768;2022-07-29T05:29:41;19.30;;;9.73;;
19739;SDS011;10027;51.066;13.768;2022-07-29T05:32:11;14.37;;;10.27;;
19739;SDS011;10027;51.066;13.768;2022-07-29T05:34:39;18.67;;;10.00;;
19739;SDS011;10027;51.066;13.768;2022-07-29T05:37:17;14.67;;;10.07;;
19739;SDS011;10027;51.066;13.768;2022-07-29T05:39:44;15.93;;;9.83;;
19739;SDS011;10027;51.066;13.768;2022-07-29T05:42:15;17.27;;;10.73;;
19739;SDS011;10027;51.066;13.768;2022-07-29T05:44:43;16.87;;;10.27;;
19739;SDS011;10027;51.066;13.768;2022-07-29T05:47:10;12.20;;;9.37;;
19739;SDS011;10027;51.066;13.768;2022-07-29T05:49:37;14.83;;;10.17;;
19739;SDS011;10027;51.066;13.768;2022-07-29T05:52:05;16.33;;;9.37;;
19739;SDS011;10027;51.066;13.768;2022-07-29T05:54:32;14.30;;;9.97;;
19739;SDS011;10027;51.066;13.768;2022-07-29T05:56:59;11.97;;;9.43;;
19739;SDS011;10027;51.066;13.768;2022-07-29T05:59:26;11.83;;;9.53;;
19739;SDS011;10027;51.066;13.768;2022-07-29T06:01:55;16.20;;;9.53;;
19739;SDS011;10027;51.066;13.768;2022-07-29T06:04:23;14.73;;;9.33;;
19739;SDS011;10027;51.066;13.768;2022-07-29T06:06:51;14.50;;;9.93;;
19739;SDS011;10027;51.066;13.768;2022-07-29T06:09:18;14.97;;;9.53;;
19739;SDS011;10027;51.066;13.768;2022-07-29T06:11:45;16.13;;;10.73;;
19739;SDS011;10027;51.066;13.768;2022-07-29T06:14:12;15.80;;;11.17;;
19739;SDS011;10027;51.066;13.768;2022-07-29T06:16:40;15.87;;;10.33;;
19739;SDS011;10027;51.066;13.768;2022-07-29T06:19:07;16.20;;;10.83;;
19739;SDS011;10027;51.066;13.768;2022-07-29T06:21:35;16.37;;;10.30;;
19739;SDS011;10027;51.066;13.768;2022-07-29T06:24:07;14.83;;;10.53;;
19739;SDS011;10027;51.066;13.768;2022-07-29T06:26:34;13.63;;;10.13;;
19739;SDS011;10027;51.066;13.768;2022-07-29T06:29:05;16.20;;;9.80;;
19739;SDS011;10027;51.066;13.768;2022-07-29T06:31:32;15.07;;;9.90;;
19739;SDS011;10027;51.066;13.768;2022-07-29T06:33:59;15.67;;;9.53;;
19739;SDS011;10027;51.066;13.768;2022-07-29T06:36:28;16.53;;;10.17;;
19739;SDS011;10027;51.066;13.768;2022-07-29T06:38:56;16.53;;;10.27;;
19739;SDS011;10027;51.066;13.768;2022-07-29T06:41:23;17.23;;;9.67;;
19739;SDS011;10027;51.066;13.768;2022-07-29T06:43:50;13.57;;;10.40;;
19739;SDS011;10027;51.066;13.768;2022-07-29T06:46:21;21.50;;;10.03;;
19739;SDS011;10027;51.066;13.768;2022-07-29T06:48:49;14.33;;;9.63;;
19739;SDS011;10027;51.066;13.768;2022-07-29T06:51:17;13.13;;;9.53;;
19739;SDS011;10027;51.066;13.768;2022-07-29T06:53:48;12.00;;;8.50;;
19739;SDS011;10027;51.066;13.768;2022-07-29T06:56:28;11.37;;;8.20;;
19739;SDS011;10027;51.066;13.768;2022-07-29T06:58:55;12.47;;;7.67;;
19739;SDS011;10027;51.066;13.768;2022-07-29T07:01:22;11.90;;;8.43;;
19739;SDS011;10027;51.066;13.768;2022-07-29T07:03:49;14.60;;;8.30;;
19739;SDS011;10027;51.066;13.768;2022-07-29T07:06:17;14.23;;;8.03;;
19739;SDS011;10027;51.066;13.768;2022-07-29T07:08:44;10.73;;;8.07;;
19739;SDS011;10027;51.066;13.768;2022-07-29T07:11:11;20.33;;;9.87;;
19739;SDS011;10027;51.066;13.768;2022-07-29T07:13:38;11.97;;;9.37;;
19739;SDS011;10027;51.066;13.768;2022-07-29T07:16:05;11.03;;;8.10;;
19739;SDS011;10027;51.066;13.768;2022-07-29T07:18:33;13.07;;;8.70;;
19739;SDS011;10027;51.066;13.768;2022-07-29T07:21:00;12.47;;;8.23;;
19739;SDS011;10027;51.066;13.768;2022-07-29T07:23:27;12.23;;;7.77;;
19739;SDS011;10027;51.066;13.768;2022-07-29T07:25:54;12.17;;;7.20;;
19739;SDS011;10027;51.066;13.768;2022-07-29T07:28:21;10.53;;;7.50;;
19739;SDS011;10027;51.066;13.768;2022-07-29T07:30:50;17.90;;;8.03;;
19739;SDS011;10027;51.066;13.768;2022-07-29T07:33:18;11.73;;;8.13;;
19739;SDS011;10027;51.066;13.768;2022-07-29T07:35:45;11.30;;;7.70;;
19739;SDS011;10027;51.066;13.768;2022-07-29T07:38:12;13.53;;;7.93;;
19739;SDS011;10027;51.066;13.768;2022-07-29T07:40:40;10.83;;;7.97;;
19739;SDS011;10027;51.066;13.768;2022-07-29T07:45:42;14.60;;;8.30;;
19739;SDS011;10027;51.066;13.768;2022-07-29T07:48:09;10.77;;;8.07;;
19739;SDS011;10027;51.066;13.768;2022-07-29T07:50:36;16.70;;;8.47;;
19739;SDS011;10027;51.066;13.768;2022-07-29T07:53:04;11.93;;;7.73;;
19739;SDS011;10027;51.066;13.768;2022-07-29T07:55:31;13.97;;;7.80;;
19739;SDS011;10027;51.066;13.768;2022-07-29T07:58:18;12.87;;;7.73;;
19739;SDS011;10027;51.066;13.768;2022-07-29T08:00:45;13.37;;;7.90;;
19739;SDS011;10027;51.066;13.768;2022-07-29T08:03:13;11.03;;;8.00;;
19739;SDS011;10027;51.066;13.768;2022-07-29T08:05:42;11.60;;;7.70;;
19739;SDS011;10027;51.066;13.768;2022-07-29T08:08:09;15.60;;;7.80;;
19739;SDS011;10027;51.066;13.768;2022-07-29T08:10:37;12.40;;;8.10;;
19739;SDS011;10027;51.066;13.768;2022-07-29T08:13:20;11.40;;;7.40;;
19739;SDS011;10027;51.066;13.768;2022-07-29T08:15:47;10.53;;;7.53;;
19739;SDS011;10027;51.066;13.768;2022-07-29T08:18:24;14.80;;;8.47;;
19739;SDS011;10027;51.066;13.768;2022-07-29T08:20:51;11.30;;;7.27;;
19739;SDS011;10027;51.066;13.768;2022-07-29T08:23:18;12.97;;;7.77;;
19739;SDS011;10027;51.066;13.768;2022-07-29T08:25:45;15.00;;;7.67;;
19739;SDS011;10027;51.066;13.768;2022-07-29T08:28:15;10.97;;;7.63;;
19739;SDS011;10027;51.066;13.768;2022-07-29T08:30:43;12.50;;;7.03;;
19739;SDS011;10027;51.066;13.768;2022-07-29T08:33:10;12.80;;;7.43;;
19739;SDS011;10027;51.066;13.768;2022-07-29T08:35:38;10.43;;;7.40;;
19739;SDS011;10027;51.066;13.768;2022-07-29T08:38:05;10.50;;;7.10;;
19739;SDS011;10027;51.066;13.768;2022-07-29T08:40:32;10.17;;;7.20;;
19739;SDS011;10027;51.066;13.768;2022-07-29T08:43:06;13.17;;;7.17;;
19739;SDS011;10027;51.066;13.768;2022-07-29T08:45:43;11.63;;;7.40;;
19739;SDS011;10027;51.066;13.768;2022-07-29T08:48:12;13.93;;;7.80;;
19739;SDS011;10027;51.066;13.768;2022-07-29T08:50:40;11.30;;;7.37;;
19739;SDS011;10027;51.066;13.768;2022-07-29T08:53:12;12.67;;;7.70;;
19739;SDS011;10027;51.066;13.768;2022-07-29T08:55:40;11.90;;;7.80;;
19739;SDS011;10027;51.066;13.768;2022-07-29T08:58:09;12.53;;;7.93;;
19739;SDS011;10027;51.066;13.768;2022-07-29T09:00:41;17.70;;;7.73;;
19739;SDS011;10027;51.066;13.768;2022-07-29T09:03:11;9.97;;;7.73;;
19739;SDS011;10027;51.066;13.768;2022-07-29T09:05:41;13.40;;;8.07;;
19739;SDS011;10027;51.066;13.768;2022-07-29T09:08:13;12.57;;;7.80;;
19739;SDS011;10027;51.066;13.768;2022-07-29T09:10:40;12.73;;;7.03;;
19739;SDS011;10027;51.066;13.768;2022-07-29T09:13:08;13.60;;;7.03;;
19739;SDS011;10027;51.066;13.768;2022-07-29T09:15:35;9.80;;;6.93;;
19739;SDS011;10027;51.066;13.768;2022-07-29T09:18:02;9.90;;;6.83;;
19739;SDS011;10027;51.066;13.768;2022-07-29T09:20:29;12.50;;;7.33;;
19739;SDS011;10027;51.066;13.768;2022-07-29T09:23:16;11.80;;;7.20;;
19739;SDS011;10027;51.066;13.768;2022-07-29T09:25:49;10.57;;;7.47;;
19739;SDS011;10027;51.066;13.768;2022-07-29T09:28:17;9.30;;;6.77;;
19739;SDS011;10027;51.066;13.768;2022-07-29T09:33:18;9.27;;;7.00;;
19739;SDS011;10027;51.066;13.768;2022-07-29T09:35:45;11.00;;;6.80;;
19739;SDS011;10027;51.066;13.768;2022-07-29T09:38:22;8.20;;;6.50;;
19739;SDS011;10027;51.066;13.768;2022-07-29T09:40:56;7.27;;;6.37;;
19739;SDS011;10027;51.066;13.768;2022-07-29T09:43:31;9.03;;;6.30;;
19739;SDS011;10027;51.066;13.768;2022-07-29T09:46:11;10.00;;;6.83;;
19739;SDS011;10027;51.066;13.768;2022-07-29T09:48:38;8.27;;;6.47;;
19739;SDS011;10027;51.066;13.768;2022-07-29T09:51:16;8.77;;;6.10;;
19739;SDS011;10027;51.066;13.768;2022-07-29T09:53:47;8.53;;;6.73;;
19739;SDS011;10027;51.066;13.768;2022-07-29T09:56:14;8.77;;;6.20;;
19739;SDS011;10027;51.066;13.768;2022-07-29T09:58:41;10.23;;;7.50;;
19739;SDS011;10027;51.066;13.768;2022-07-29T10:01:08;10.30;;;7.30;;
19739;SDS011;10027;51.066;13.768;2022-07-29T10:03:51;11.60;;;7.13;;
19739;SDS011;10027;51.066;13.768;2022-07-29T10:06:18;8.67;;;6.67;;
19739;SDS011;10027;51.066;13.768;2022-07-29T10:08:46;11.43;;;7.77;;
19739;SDS011;10027;51.066;13.768;2022-07-29T10:11:14;9.90;;;7.57;;
19739;SDS011;10027;51.066;13.768;2022-07-29T10:13:42;10.87;;;6.80;;
19739;SDS011;10027;51.066;13.768;2022-07-29T10:16:10;10.50;;;7.07;;
19739;SDS011;10027;51.066;13.768;2022-07-29T10:18:39;9.40;;;7.27;;
19739;SDS011;10027;51.066;13.768;2022-07-29T10:21:07;10.07;;;7.13;;
19739;SDS011;10027;51.066;13.768;2022-07-29T10:23:35;8.90;;;6.33;;
19739;SDS011;10027;51.066;13.768;2022-07-29T10:26:12;8.10;;;6.27;;
19739;SDS011;10027;51.066;13.768;2022-07-29T10:28:40;7.87;;;6.07;;
19739;SDS011;10027;51.066;13.768;2022-07-29T10:31:08;9.93;;;6.90;;
19739;SDS011;10027;51.066;13.768;2022-07-29T10:33:44;7.53;;;5.20;;
19739;SDS011;10027;51.066;13.768;2022-07-29T10:41:51;6.83;;;5.20;;
19739;SDS011;10027;51.066;13.768;2022-07-29T10:44:23;6.33;;;4.80;;
19739;SDS011;10027;51.066;13.768;2022-07-29T10:46:51;7.13;;;5.23;;
19739;SDS011;10027;51.066;13.768;2022-07-29T10:49:20;8.13;;;4.57;;
19739;SDS011;10027;51.066;13.768;2022-07-29T10:52:06;5.03;;;3.90;;
19739;SDS011;10027;51.066;13.768;2022-07-29T10:57:12;3.07;;;2.67;;
19739;SDS011;10027;51.066;13.768;2022-07-29T10:59:40;2.97;;;2.40;;
19739;SDS011;10027;51.066;13.768;2022-07-29T11:05:12;2.43;;;2.23;;
19739;SDS011;10027;51.066;13.768;2022-07-29T11:08:16;4.27;;;2.80;;
19739;SDS011;10027;51.066;13.768;2022-07-29T11:10:27;3.87;;;2.60;;
19739;SDS011;10027;51.066;13.768;2022-07-29T11:12:57;3.97;;;2.40;;
19739;SDS011;10027;51.066;13.768;2022-07-29T11:15:24;2.43;;;2.10;;
19739;SDS011;10027;51.066;13.768;2022-07-29T11:28:33;2.93;;;2.43;;
19739;SDS011;10027;51.066;13.768;2022-07-29T11:31:01;3.97;;;2.27;;
19739;SDS011;10027;51.066;13.768;2022-07-29T11:33:31;2.43;;;2.23;;
19739;SDS011;10027;51.066;13.768;2022-07-29T11:36:19;5.23;;;2.67;;
19739;SDS011;10027;51.066;13.768;2022-07-29T11:38:53;2.73;;;2.53;;
19739;SDS011;10027;51.066;13.768;2022-07-29T11:41:47;2.77;;;2.57;;
19739;SDS011;10027;51.066;13.768;2022-07-29T11:44:14;2.60;;;2.40;;
19739;SDS011;10027;51.066;13.768;2022-07-29T11:46:47;2.67;;;2.47;;
19739;SDS011;10027;51.066;13.768;2022-07-29T11:49:26;2.90;;;2.67;;
19739;SDS011;10027;51.066;13.768;2022-07-29T11:51:58;2.80;;;2.60;;
19739;SDS011;10027;51.066;13.768;2022-07-29T11:54:31;2.97;;;2.67;;
19739;SDS011;10027;51.066;13.768;2022-07-29T11:57:19;4.73;;;2.73;;
19739;SDS011;10027;51.066;13.768;2022-07-29T12:00:07;3.43;;;2.60;;
19739;SDS011;10027;51.066;13.768;2022-07-29T12:02:56;2.90;;;2.60;;
19739;SDS011;10027;51.066;13.768;2022-07-29T12:05:32;7.90;;;6.23;;
19739;SDS011;10027;51.066;13.768;2022-07-29T12:08:21;6.73;;;5.33;;
19739;SDS011;10027;51.066;13.768;2022-07-29T12:10:49;5.57;;;3.67;;
19739;SDS011;10027;51.066;13.768;2022-07-29T12:13:18;3.70;;;3.40;;
19739;SDS011;10027;51.066;13.768;2022-07-29T12:15:54;4.17;;;3.77;;
19739;SDS011;10027;51.066;13.768;2022-07-29T12:18:25;4.20;;;3.77;;
19739;SDS011;10027;51.066;13.768;2022-07-29T12:20:56;4.33;;;3.93;;
19739;SDS011;10027;51.066;13.768;2022-07-29T12:23:24;4.03;;;3.57;;
19739;SDS011;10027;51.066;13.768;2022-07-29T12:26:00;4.80;;;4.10;;
19739;SDS011;10027;51.066;13.768;2022-07-29T12:28:27;6.63;;;4.10;;
19739;SDS011;10027;51.066;13.768;2022-07-29T12:30:56;3.50;;;3.07;;
19739;SDS011;10027;51.066;13.768;2022-07-29T12:33:25;3.60;;;3.20;;
19739;SDS011;10027;51.066;13.768;2022-07-29T12:35:54;6.67;;;3.93;;
19739;SDS011;10027;51.066;13.768;2022-07-29T12:38:36;4.30;;;3.20;;
19739;SDS011;10027;51.066;13.768;2022-07-29T12:41:03;4.17;;;3.47;;
19739;SDS011;10027;51.066;13.768;2022-07-29T12:43:30;5.10;;;4.07;;
19739;SDS011;10027;51.066;13.768;2022-07-29T12:46:00;7.20;;;5.67;;
19739;SDS011;10027;51.066;13.768;2022-07-29T12:48:39;7.00;;;5.80;;
19739;SDS011;10027;51.066;13.768;2022-07-29T12:51:07;7.27;;;5.83;;
19739;SDS011;10027;51.066;13.768;2022-07-29T12:53:35;5.23;;;4.50;;
19739;SDS011;10027;51.066;13.768;2022-07-29T12:56:03;3.83;;;3.43;;
19739;SDS011;10027;51.066;13.768;2022-07-29T12:58:50;3.60;;;3.30;;
19739;SDS011;10027;51.066;13.768;2022-07-29T13:01:18;3.50;;;3.20;;
19739;SDS011;10027;51.066;13.768;2022-07-29T13:06:36;4.57;;;3.20;;
19739;SDS011;10027;51.066;13.768;2022-07-29T13:14:01;4.10;;;3.17;;
19739;SDS011;10027;51.066;13.768;2022-07-29T13:16:32;3.57;;;3.20;;
19739;SDS011;10027;51.066;13.768;2022-07-29T13:19:03;5.53;;;3.17;;
19739;SDS011;10027;51.066;13.768;2022-07-29T13:21:31;5.40;;;3.60;;
19739;SDS011;10027;51.066;13.768;2022-07-29T13:23:58;3.73;;;3.20;;
19739;SDS011;10027;51.066;13.768;2022-07-29T13:26:25;3.20;;;2.90;;
19739;SDS011;10027;51.066;13.768;2022-07-29T13:28:54;3.30;;;3.00;;
19739;SDS011;10027;51.066;13.768;2022-07-29T13:31:21;4.97;;;3.23;;
19739;SDS011;10027;51.066;13.768;2022-07-29T13:33:48;3.87;;;3.57;;
19739;SDS011;10027;51.066;13.768;2022-07-29T13:36:18;4.23;;;3.47;;
19739;SDS011;10027;51.066;13.768;2022-07-29T13:38:45;3.73;;;3.20;;
19739;SDS011;10027;51.066;13.768;2022-07-29T13:41:12;3.80;;;3.50;;
19739;SDS011;10027;51.066;13.768;2022-07-29T13:43:39;4.83;;;3.53;;
19739;SDS011;10027;51.066;13.768;2022-07-29T13:46:06;4.70;;;3.43;;
19739;SDS011;10027;51.066;13.768;2022-07-29T13:48:34;3.30;;;3.00;;
19739;SDS011;10027;51.066;13.768;2022-07-29T13:51:01;2.70;;;2.50;;
19739;SDS011;10027;51.066;13.768;2022-07-29T13:53:28;3.50;;;2.83;;
19739;SDS011;10027;51.066;13.768;2022-07-29T13:55:55;7.27;;;3.03;;
19739;SDS011;10027;51.066;13.768;2022-07-29T13:58:23;3.67;;;2.77;;
19739;SDS011;10027;51.066;13.768;2022-07-29T14:00:50;3.07;;;2.83;;
19739;SDS011;10027;51.066;13.768;2022-07-29T14:03:17;2.90;;;2.60;;
19739;SDS011;10027;51.066;13.768;2022-07-29T14:05:44;3.10;;;2.80;;
19739;SDS011;10027;51.066;13.768;2022-07-29T14:08:11;3.07;;;2.80;;
19739;SDS011;10027;51.066;13.768;2022-07-29T14:10:39;3.60;;;2.70;;
19739;SDS011;10027;51.066;13.768;2022-07-29T14:13:06;2.90;;;2.70;;
19739;SDS011;10027;51.066;13.768;2022-07-29T14:15:50;4.03;;;2.80;;
19739;SDS011;10027;51.066;13.768;2022-07-29T14:18:17;4.27;;;2.80;;
19739;SDS011;10027;51.066;13.768;2022-07-29T14:20:44;3.00;;;2.70;;
19739;SDS011;10027;51.066;13.768;2022-07-29T14:23:12;3.47;;;2.80;;
19739;SDS011;10027;51.066;13.768;2022-07-29T14:25:41;6.33;;;2.77;;
19739;SDS011;10027;51.066;13.768;2022-07-29T14:28:09;4.87;;;2.90;;
19739;SDS011;10027;51.066;13.768;2022-07-29T14:30:39;2.90;;;2.70;;
19739;SDS011;10027;51.066;13.768;2022-07-29T14:33:07;3.07;;;2.87;;
19739;SDS011;10027;51.066;13.768;2022-07-29T14:35:34;2.90;;;2.60;;
19739;SDS011;10027;51.066;13.768;2022-07-29T14:38:01;3.17;;;2.87;;
19739;SDS011;10027;51.066;13.768;2022-07-29T14:40:28;2.90;;;2.70;;
19739;SDS011;10027;51.066;13.768;2022-07-29T14:42:55;5.50;;;3.20;;
19739;SDS011;10027;51.066;13.768;2022-07-29T14:45:23;3.70;;;3.40;;
19739;SDS011;10027;51.066;13.768;2022-07-29T14:47:50;5.27;;;3.50;;
19739;SDS011;10027;51.066;13.768;2022-07-29T14:50:22;3.50;;;3.07;;
19739;SDS011;10027;51.066;13.768;2022-07-29T14:52:57;6.50;;;3.80;;
19739;SDS011;10027;51.066;13.768;2022-07-29T14:55:24;4.10;;;3.70;;
19739;SDS011;10027;51.066;13.768;2022-07-29T14:57:51;5.40;;;3.57;;
19739;SDS011;10027;51.066;13.768;2022-07-29T15:00:31;4.63;;;3.93;;
19739;SDS011;10027;51.066;13.768;2022-07-29T15:03:00;5.97;;;4.67;;
19739;SDS011;10027;51.066;13.768;2022-07-29T15:05:28;5.13;;;4.50;;
19739;SDS011;10027;51.066;13.768;2022-07-29T15:07:56;6.40;;;4.97;;
19739;SDS011;10027;51.066;13.768;2022-07-29T15:10:23;8.27;;;5.40;;
19739;SDS011;10027;51.066;13.768;2022-07-29T15:12:52;6.60;;;5.90;;
19739;SDS011;10027;51.066;13.768;2022-07-29T15:15:19;8.77;;;5.90;;
19739;SDS011;10027;51.066;13.768;2022-07-29T15:17:46;8.63;;;6.37;;
19739;SDS011;10027;51.066;13.768;2022-07-29T15:20:14;8.17;;;6.07;;
19739;SDS011;10027;51.066;13.768;2022-07-29T15:22:41;8.97;;;6.27;;
19739;SDS011;10027;51.066;13.768;2022-07-29T15:25:09;11.17;;;7.50;;
19739;SDS011;10027;51.066;13.768;2022-07-29T15:27:36;9.00;;;7.63;;
19739;SDS011;10027;51.066;13.768;2022-07-29T15:30:04;9.37;;;7.50;;